Time;durP1;ratioP1;P1;durP2;ratioP2;P2;SDS_P1;SDS_P2;PMS_P1;PMS_P2;Temp;Humidity;BMP_temperature;BMP_pressure;BME280_temperature;BME280_humidity;BME280_pressure;Samples;Min_cycle;Max_cycle;Signal;HPM_P1;HPM_P2
2023/05/21 00:00:22;;;;;;;9.05;7.90;;;;;;;;;;5056068;28;20509;-59
2023/05/21 00:02:50;;;;;;;10.02;9.02;;;;;;;;;;5057584;28;20075;-59
2023/05/21 00:05:17;;;;;;;9.50;8.43;;;;;;;;;;5057705;28;20057;-59
2023/05/21 00:07:43;;;;;;;9.60;8.60;;;;;;;;;;5057579;28;20025;-59
2023/05/21 00:10:09;;;;;;;9.65;8.40;;;;;;;;;;5057133;28;20060;-59
2023/05/21 00:12:35;;;;;;;9.65;8.68;;;;;;;;;;5056798;28;20025;-59
2023/05/21 00:15:01;;;;;;;9.70;8.70;;;;;;;;;;5056952;28;20106;-59
2023/05/21 00:17:27;;;;;;;9.50;8.48;;;;;;;;;;5057051;28;20059;-59
2023/05/21 00:19:55;;;;;;;10.95;8.82;;;;;;;;;;5056995;28;20620;-59
2023/05/21 00:22:21;;;;;;;9.68;8.52;;;;;;;;;;5056864;28;20029;-59
2023/05/21 00:24:47;;;;;;;9.82;8.07;;;;;;;;;;5056933;28;20163;-59
2023/05/21 00:27:13;;;;;;;9.75;8.75;;;;;;;;;;5056934;28;20406;-59
2023/05/21 00:29:39;;;;;;;12.57;8.82;;;;;;;;;;5056507;28;20100;-59
2023/05/21 00:32:05;;;;;;;12.07;8.38;;;;;;;;;;5057288;28;20017;-59
2023/05/21 00:34:31;;;;;;;12.68;8.57;;;;;;;;;;5057084;28;20029;-59
2023/05/21 00:36:57;;;;;;;11.63;10.52;;;;;;;;;;5056758;28;20367;-59
2023/05/21 00:39:23;;;;;;;9.80;8.80;;;;;;;;;;5056379;28;20348;-59
2023/05/21 00:41:49;;;;;;;13.40;9.98;;;;;;;;;;5057075;28;20495;-59
2023/05/21 00:44:17;;;;;;;10.55;9.55;;;;;;;;;;5056589;28;20020;-59
2023/05/21 00:46:43;;;;;;;11.63;9.25;;;;;;;;;;5057401;28;20025;-59
2023/05/21 00:49:10;;;;;;;10.23;9.10;;;;;;;;;;5056671;28;20525;-59
2023/05/21 00:51:36;;;;;;;11.00;8.80;;;;;;;;;;5056724;28;20025;-59
2023/05/21 00:54:02;;;;;;;12.10;9.13;;;;;;;;;;5056364;28;20029;-59
2023/05/21 00:56:28;;;;;;;10.10;9.10;;;;;;;;;;5056738;28;20048;-59
2023/05/21 00:58:58;;;;;;;11.30;9.80;;;;;;;;;;5056830;28;20033;-59
2023/05/21 01:01:24;;;;;;;9.30;8.40;;;;;;;;;;5056639;28;20083;-59
2023/05/21 01:03:53;;;;;;;10.30;9.30;;;;;;;;;;5056697;28;20032;-59
2023/05/21 01:06:19;;;;;;;9.43;8.52;;;;;;;;;;5056433;28;20033;-59
2023/05/21 01:08:45;;;;;;;10.02;9.05;;;;;;;;;;5056548;28;20021;-59
2023/05/21 01:11:11;;;;;;;10.45;8.93;;;;;;;;;;5055092;28;20029;-59
2023/05/21 01:13:40;;;;;;;12.32;9.68;;;;;;;;;;5055704;28;20067;-58
2023/05/21 01:16:07;;;;;;;10.65;9.57;;;;;;;;;;5056488;28;20455;-59
2023/05/21 01:18:33;;;;;;;10.35;9.25;;;;;;;;;;5055867;28;20029;-59
2023/05/21 01:21:00;;;;;;;10.45;9.45;;;;;;;;;;5055750;28;20029;-59
2023/05/21 01:23:26;;;;;;;10.45;9.38;;;;;;;;;;5055828;28;20029;-59
2023/05/21 01:25:52;;;;;;;10.48;9.38;;;;;;;;;;5056145;28;20033;-59
2023/05/21 01:28:18;;;;;;;11.18;9.35;;;;;;;;;;5055710;28;20025;-59
2023/05/21 01:30:44;;;;;;;11.27;9.57;;;;;;;;;;5055702;28;20033;-59
2023/05/21 01:33:14;;;;;;;10.10;9.07;;;;;;;;;;5055569;28;20025;-58
2023/05/21 01:35:46;;;;;;;11.65;9.80;;;;;;;;;;5055695;28;20044;-58
2023/05/21 01:38:30;;;;;;;11.50;10.35;;;;;;;;;;5055507;28;20021;-58
2023/05/21 01:41:03;;;;;;;10.07;9.02;;;;;;;;;;5055497;28;20060;-58
2023/05/21 01:43:31;;;;;;;10.25;9.20;;;;;;;;;;5055136;28;20471;-59
2023/05/21 01:45:58;;;;;;;10.73;9.73;;;;;;;;;;5055967;28;20017;-58
2023/05/21 01:48:25;;;;;;;10.55;9.48;;;;;;;;;;5055100;28;20052;-58
2023/05/21 01:50:54;;;;;;;11.43;9.73;;;;;;;;;;5055291;28;20024;-58
2023/05/21 01:53:20;;;;;;;10.68;9.57;;;;;;;;;;5055755;28;20102;-58
2023/05/21 01:55:47;;;;;;;10.48;9.38;;;;;;;;;;5055085;28;20493;-58
2023/05/21 01:58:14;;;;;;;10.80;9.80;;;;;;;;;;5055062;28;20451;-58
2023/05/21 02:00:40;;;;;;;12.55;11.25;;;;;;;;;;5055573;28;20340;-58
2023/05/21 02:03:07;;;;;;;10.40;9.43;;;;;;;;;;5055018;28;20119;-58
2023/05/21 02:05:33;;;;;;;11.85;10.65;;;;;;;;;;5055079;28;20422;-58
2023/05/21 02:07:59;;;;;;;12.50;10.60;;;;;;;;;;5054928;28;20348;-58
2023/05/21 02:10:25;;;;;;;13.38;10.80;;;;;;;;;;5054970;28;20025;-58
2023/05/21 02:12:51;;;;;;;12.75;11.55;;;;;;;;;;5055561;28;20112;-58
2023/05/21 02:15:18;;;;;;;12.60;10.43;;;;;;;;;;5055479;28;20053;-58
2023/05/21 02:17:44;;;;;;;11.50;10.18;;;;;;;;;;5054691;28;20447;-58
2023/05/21 02:20:11;;;;;;;14.50;10.30;;;;;;;;;;5055368;28;20119;-58
2023/05/21 02:22:38;;;;;;;12.05;10.35;;;;;;;;;;5053729;28;20370;-58
2023/05/21 02:25:04;;;;;;;12.98;11.68;;;;;;;;;;5054762;28;20039;-59
2023/05/21 02:27:31;;;;;;;11.93;10.73;;;;;;;;;;5054900;28;20021;-58
2023/05/21 02:29:57;;;;;;;11.85;10.60;;;;;;;;;;5054491;28;20037;-58
2023/05/21 02:32:23;;;;;;;12.63;11.43;;;;;;;;;;5054501;28;20029;-58
2023/05/21 02:34:49;;;;;;;13.52;10.82;;;;;;;;;;5054928;28;20074;-58
2023/05/21 02:37:16;;;;;;;12.65;11.35;;;;;;;;;;5055274;28;20108;-58
2023/05/21 02:39:42;;;;;;;12.60;11.10;;;;;;;;;;5054297;28;20503;-58
2023/05/21 02:42:08;;;;;;;13.18;11.88;;;;;;;;;;5054308;28;20112;-58
2023/05/21 02:44:34;;;;;;;12.45;11.23;;;;;;;;;;5054850;28;20486;-58
2023/05/21 02:47:00;;;;;;;11.20;10.10;;;;;;;;;;5054620;28;20462;-58
2023/05/21 02:49:26;;;;;;;11.77;10.68;;;;;;;;;;5054677;28;20033;-58
2023/05/21 02:51:52;;;;;;;12.43;11.20;;;;;;;;;;5054243;28;20103;-58
2023/05/21 02:54:18;;;;;;;11.98;10.80;;;;;;;;;;5054045;28;20029;-58
2023/05/21 02:56:44;;;;;;;13.07;11.88;;;;;;;;;;5054073;28;20029;-58
2023/05/21 02:59:10;;;;;;;13.13;11.68;;;;;;;;;;5053956;28;20033;-58
2023/05/21 03:01:36;;;;;;;12.43;10.77;;;;;;;;;;5053982;28;20035;-58
2023/05/21 03:04:02;;;;;;;12.40;11.10;;;;;;;;;;5053701;28;20426;-58
2023/05/21 03:06:28;;;;;;;12.13;10.93;;;;;;;;;;5054232;28;20386;-58
2023/05/21 03:08:54;;;;;;;10.65;9.45;;;;;;;;;;5053840;28;20112;-58
2023/05/21 03:11:21;;;;;;;12.90;11.60;;;;;;;;;;5053775;28;20024;-58
2023/05/21 03:13:47;;;;;;;12.85;10.85;;;;;;;;;;5053647;28;20464;-59
2023/05/21 03:16:13;;;;;;;11.60;10.48;;;;;;;;;;5054116;28;20060;-58
2023/05/21 03:18:39;;;;;;;12.52;11.25;;;;;;;;;;5054010;28;20363;-58
2023/05/21 03:21:05;;;;;;;13.68;12.00;;;;;;;;;;5054095;28;20029;-58
2023/05/21 03:23:31;;;;;;;12.40;11.05;;;;;;;;;;5053622;28;20021;-58
2023/05/21 03:25:57;;;;;;;12.02;10.77;;;;;;;;;;5053962;28;20116;-58
2023/05/21 03:28:23;;;;;;;13.00;11.70;;;;;;;;;;5053676;28;20039;-58
2023/05/21 03:30:49;;;;;;;14.32;12.63;;;;;;;;;;5053629;28;20035;-58
2023/05/21 03:33:15;;;;;;;11.82;10.65;;;;;;;;;;5053756;28;20028;-58
2023/05/21 03:35:41;;;;;;;12.27;10.75;;;;;;;;;;5053347;28;20514;-58
2023/05/21 03:38:07;;;;;;;12.45;11.23;;;;;;;;;;5053647;28;20028;-58
2023/05/21 03:40:33;;;;;;;10.90;9.60;;;;;;;;;;5053792;28;20091;-58
2023/05/21 03:42:59;;;;;;;12.32;10.35;;;;;;;;;;5054214;28;20028;-58
2023/05/21 03:45:25;;;;;;;13.45;12.00;;;;;;;;;;5053879;28;20112;-58
2023/05/21 03:47:51;;;;;;;12.38;11.18;;;;;;;;;;5053960;28;20033;-58
2023/05/21 03:50:17;;;;;;;11.07;9.88;;;;;;;;;;5053809;28;20037;-58
2023/05/21 03:52:43;;;;;;;13.18;10.82;;;;;;;;;;5053476;28;20017;-58
2023/05/21 03:55:09;;;;;;;12.80;11.52;;;;;;;;;;5053439;28;20024;-58
2023/05/21 03:57:36;;;;;;;13.73;11.48;;;;;;;;;;5053574;28;20056;-58
2023/05/21 04:00:03;;;;;;;13.20;11.80;;;;;;;;;;5053309;28;20028;-58
2023/05/21 04:02:29;;;;;;;12.85;11.55;;;;;;;;;;5053421;28;20033;-58
2023/05/21 04:04:55;;;;;;;11.75;10.57;;;;;;;;;;5053952;28;20336;-58
2023/05/21 04:07:21;;;;;;;12.02;10.82;;;;;;;;;;5053962;28;20028;-58
2023/05/21 04:09:47;;;;;;;13.32;11.98;;;;;;;;;;5053448;28;20036;-58
2023/05/21 04:12:13;;;;;;;12.15;10.95;;;;;;;;;;5053059;28;20021;-58
2023/05/21 04:14:39;;;;;;;13.02;11.55;;;;;;;;;;5053497;28;20387;-58
2023/05/21 04:17:05;;;;;;;12.77;11.52;;;;;;;;;;5053831;28;20100;-58
2023/05/21 04:19:31;;;;;;;13.70;11.30;;;;;;;;;;5053774;28;20352;-58
2023/05/21 04:21:57;;;;;;;13.43;12.00;;;;;;;;;;5053119;28;20037;-58
2023/05/21 04:24:23;;;;;;;13.52;12.13;;;;;;;;;;5053190;28;20032;-58
2023/05/21 04:26:49;;;;;;;12.82;11.52;;;;;;;;;;5053789;28;20028;-58
2023/05/21 04:29:16;;;;;;;13.60;12.25;;;;;;;;;;5053489;28;20450;-58
2023/05/21 04:31:43;;;;;;;12.75;11.43;;;;;;;;;;5053117;28;20036;-58
2023/05/21 04:34:09;;;;;;;12.85;11.55;;;;;;;;;;5053190;28;20029;-58
2023/05/21 04:36:35;;;;;;;17.08;12.35;;;;;;;;;;5053508;28;20055;-58
2023/05/21 04:39:01;;;;;;;13.77;12.38;;;;;;;;;;5053128;28;20056;-58
2023/05/21 04:41:27;;;;;;;13.27;11.98;;;;;;;;;;5053051;28;20033;-58
2023/05/21 04:43:53;;;;;;;13.45;12.05;;;;;;;;;;5053301;28;20017;-58
2023/05/21 04:46:23;;;;;;;14.70;12.38;;;;;;;;;;5053932;28;20029;-58
2023/05/21 04:48:51;;;;;;;14.25;12.63;;;;;;;;;;5057430;28;20474;-58
2023/05/21 04:51:17;;;;;;;12.57;11.25;;;;;;;;;;5057136;28;20064;-58
2023/05/21 04:53:42;;;;;;;13.35;11.98;;;;;;;;;;5056478;28;20025;-58
2023/05/21 04:56:08;;;;;;;12.00;10.80;;;;;;;;;;5056673;28;20098;-58
2023/05/21 04:58:34;;;;;;;17.50;12.43;;;;;;;;;;5056622;28;20017;-58
2023/05/21 05:01:02;;;;;;;14.43;11.27;;;;;;;;;;5056055;28;20029;-58
2023/05/21 05:03:29;;;;;;;12.75;11.55;;;;;;;;;;5056520;28;20056;-58
2023/05/21 05:05:55;;;;;;;12.27;11.02;;;;;;;;;;5056851;28;20356;-58
2023/05/21 05:08:21;;;;;;;11.57;10.38;;;;;;;;;;5056215;28;20113;-58
2023/05/21 05:10:47;;;;;;;14.43;11.48;;;;;;;;;;5056059;28;20065;-58
2023/05/21 05:13:13;;;;;;;10.77;9.77;;;;;;;;;;5056142;28;20063;-58
2023/05/21 05:15:39;;;;;;;15.23;10.98;;;;;;;;;;5055591;28;20091;-58
2023/05/21 05:18:07;;;;;;;12.77;11.48;;;;;;;;;;5056054;28;20036;-58
2023/05/21 05:20:33;;;;;;;12.63;10.10;;;;;;;;;;5056739;28;20037;-58
2023/05/21 05:22:59;;;;;;;12.43;11.23;;;;;;;;;;5056013;28;20025;-58
2023/05/21 05:25:26;;;;;;;12.02;10.80;;;;;;;;;;5056366;28;20352;-58
2023/05/21 05:27:52;;;;;;;12.23;11.00;;;;;;;;;;5056235;28;20028;-58
2023/05/21 05:30:17;;;;;;;13.60;12.25;;;;;;;;;;5055741;28;20029;-58
2023/05/21 05:32:43;;;;;;;12.18;10.95;;;;;;;;;;5055423;28;20071;-58
2023/05/21 05:35:09;;;;;;;15.45;11.52;;;;;;;;;;5055714;28;20013;-58
2023/05/21 05:37:35;;;;;;;10.93;9.85;;;;;;;;;;5055997;28;20497;-58
2023/05/21 05:40:03;;;;;;;12.45;10.50;;;;;;;;;;5056091;28;20021;-58
2023/05/21 05:42:29;;;;;;;15.57;11.02;;;;;;;;;;5056091;28;20029;-58
2023/05/21 05:44:55;;;;;;;12.23;10.25;;;;;;;;;;5055845;28;20025;-58
2023/05/21 05:47:21;;;;;;;12.38;11.07;;;;;;;;;;5055790;28;20021;-58
2023/05/21 05:49:47;;;;;;;12.52;11.32;;;;;;;;;;5055490;28;20029;-58
2023/05/21 05:52:13;;;;;;;13.23;11.90;;;;;;;;;;5055939;28;20108;-58
2023/05/21 05:54:39;;;;;;;12.20;10.90;;;;;;;;;;5055403;28;20029;-58
2023/05/21 05:57:05;;;;;;;12.13;10.90;;;;;;;;;;5055036;28;20455;-58
2023/05/21 05:59:32;;;;;;;12.82;11.27;;;;;;;;;;5055289;28;20047;-58
2023/05/21 06:01:59;;;;;;;13.30;10.93;;;;;;;;;;5055110;28;20037;-58
2023/05/21 06:04:24;;;;;;;12.70;11.48;;;;;;;;;;5055111;28;20132;-58
2023/05/21 06:06:53;;;;;;;12.10;10.88;;;;;;;;;;5055491;28;20104;-58
2023/05/21 06:09:20;;;;;;;12.30;11.10;;;;;;;;;;5055111;28;20375;-58
2023/05/21 06:11:46;;;;;;;11.73;10.55;;;;;;;;;;5054706;28;20506;-58
2023/05/21 06:14:12;;;;;;;12.05;10.82;;;;;;;;;;5055101;28;20049;-58
2023/05/21 06:16:38;;;;;;;13.80;11.15;;;;;;;;;;5055252;28;20021;-58
2023/05/21 06:19:04;;;;;;;12.27;11.00;;;;;;;;;;5054873;28;20025;-58
2023/05/21 06:21:30;;;;;;;12.68;11.18;;;;;;;;;;5054792;28;20079;-58
2023/05/21 06:23:56;;;;;;;12.35;11.18;;;;;;;;;;5055612;28;20068;-58
2023/05/21 06:26:22;;;;;;;12.27;9.57;;;;;;;;;;5055043;28;20340;-58
2023/05/21 06:28:48;;;;;;;11.80;10.70;;;;;;;;;;5055153;28;20104;-58
2023/05/21 06:31:15;;;;;;;13.40;11.82;;;;;;;;;;5054430;28;20466;-58
2023/05/21 06:33:41;;;;;;;10.98;9.88;;;;;;;;;;5055108;28;20060;-58
2023/05/21 06:36:07;;;;;;;10.40;9.27;;;;;;;;;;5054560;28;20516;-58
2023/05/21 06:38:33;;;;;;;11.52;10.35;;;;;;;;;;5055187;28;20167;-58
2023/05/21 06:40:59;;;;;;;9.63;8.68;;;;;;;;;;5054579;28;20029;-58
2023/05/21 06:43:25;;;;;;;10.85;9.32;;;;;;;;;;5054308;28;20028;-58
2023/05/21 06:45:51;;;;;;;11.63;9.13;;;;;;;;;;5054695;28;20418;-58
2023/05/21 06:48:17;;;;;;;10.50;9.48;;;;;;;;;;5054921;28;20021;-58
2023/05/21 06:50:43;;;;;;;10.90;8.95;;;;;;;;;;5054272;28;20618;-58
2023/05/21 06:53:09;;;;;;;10.35;8.60;;;;;;;;;;5054519;28;20025;-58
2023/05/21 06:55:36;;;;;;;9.65;8.63;;;;;;;;;;5054113;28;20048;-58
2023/05/21 06:58:01;;;;;;;10.07;8.95;;;;;;;;;;5054150;28;20079;-58
2023/05/21 07:00:27;;;;;;;10.43;8.77;;;;;;;;;;5054318;28;20456;-58
2023/05/21 07:02:53;;;;;;;9.55;8.60;;;;;;;;;;5054012;28;20029;-58
2023/05/21 07:05:19;;;;;;;11.00;8.73;;;;;;;;;;5054026;28;20025;-58
2023/05/21 07:07:45;;;;;;;9.57;8.68;;;;;;;;;;5054812;28;20032;-58
2023/05/21 07:10:11;;;;;;;9.63;8.65;;;;;;;;;;5053294;28;20029;-58
2023/05/21 07:12:39;;;;;;;9.38;8.45;;;;;;;;;;5054190;28;20021;-58
2023/05/21 07:15:05;;;;;;;10.43;8.73;;;;;;;;;;5053509;28;20095;-58
2023/05/21 07:17:31;;;;;;;10.27;9.00;;;;;;;;;;5054179;28;20336;-58
2023/05/21 07:19:57;;;;;;;15.82;8.75;;;;;;;;;;5053850;28;20029;-58
2023/05/21 07:22:23;;;;;;;8.85;8.02;;;;;;;;;;5054144;28;20028;-58
2023/05/21 07:24:49;;;;;;;8.50;7.70;;;;;;;;;;5054169;28;20459;-58
2023/05/21 07:27:15;;;;;;;9.32;7.30;;;;;;;;;;5054169;28;20099;-58
2023/05/21 07:29:41;;;;;;;8.68;7.72;;;;;;;;;;5053692;28;20025;-58
2023/05/21 07:32:07;;;;;;;8.68;7.80;;;;;;;;;;5053766;28;20025;-58
2023/05/21 07:34:33;;;;;;;8.70;7.57;;;;;;;;;;5053715;28;20071;-58
2023/05/21 07:36:59;;;;;;;9.35;8.23;;;;;;;;;;5053998;28;20033;-58
2023/05/21 07:39:25;;;;;;;10.18;7.50;;;;;;;;;;5053663;28;20013;-59
2023/05/21 07:41:51;;;;;;;7.97;7.20;;;;;;;;;;5053840;28;20428;-58
2023/05/21 07:44:17;;;;;;;10.45;9.45;;;;;;;;;;5054446;28;20481;-58
2023/05/21 07:46:43;;;;;;;10.70;9.15;;;;;;;;;;5053628;28;20442;-58
2023/05/21 07:49:15;;;;;;;9.25;8.35;;;;;;;;;;5053981;28;20167;-58
2023/05/21 07:51:41;;;;;;;10.10;8.63;;;;;;;;;;5053480;28;20025;-58
2023/05/21 07:54:07;;;;;;;8.55;7.75;;;;;;;;;;5054005;28;20028;-58
2023/05/21 07:56:33;;;;;;;10.07;9.18;;;;;;;;;;5054067;28;20027;-58
2023/05/21 07:58:59;;;;;;;10.25;8.30;;;;;;;;;;5053536;28;20459;-58
2023/05/21 08:01:25;;;;;;;7.93;7.15;;;;;;;;;;5053927;28;20355;-58
2023/05/21 08:03:51;;;;;;;9.52;8.63;;;;;;;;;;5053336;28;20024;-58
2023/05/21 08:06:17;;;;;;;8.85;7.93;;;;;;;;;;5053657;28;20410;-58
2023/05/21 08:08:43;;;;;;;8.63;7.60;;;;;;;;;;5053408;28;20025;-59
2023/05/21 08:11:09;;;;;;;7.15;6.50;;;;;;;;;;5053665;28;20029;-58
2023/05/21 08:13:35;;;;;;;8.30;7.50;;;;;;;;;;5051841;28;20029;-59
2023/05/21 08:16:01;;;;;;;8.63;7.82;;;;;;;;;;5053590;28;20040;-59
2023/05/21 08:18:27;;;;;;;9.30;7.38;;;;;;;;;;5053137;28;20017;-59
2023/05/21 08:20:54;;;;;;;7.75;6.95;;;;;;;;;;5055033;28;20041;-58
2023/05/21 08:23:20;;;;;;;7.60;6.72;;;;;;;;;;5057564;28;20512;-58
2023/05/21 08:25:46;;;;;;;8.65;7.68;;;;;;;;;;5057790;28;20029;-59
2023/05/21 08:28:12;;;;;;;9.15;8.07;;;;;;;;;;5056678;28;20017;-58
2023/05/21 08:30:38;;;;;;;8.90;8.00;;;;;;;;;;5057196;28;20029;-58
2023/05/21 08:33:04;;;;;;;9.77;8.77;;;;;;;;;;5056849;28;20016;-58
2023/05/21 08:35:30;;;;;;;9.50;8.43;;;;;;;;;;5056776;28;20057;-58
2023/05/21 08:37:56;;;;;;;9.13;8.10;;;;;;;;;;5057413;28;20052;-58
2023/05/21 08:40:22;;;;;;;9.80;8.82;;;;;;;;;;5056706;28;20072;-59
2023/05/21 08:42:48;;;;;;;9.20;8.20;;;;;;;;;;5056457;28;20374;-58
2023/05/21 08:45:16;;;;;;;9.75;8.75;;;;;;;;;;5056684;28;20029;-59
2023/05/21 08:47:43;;;;;;;9.85;8.85;;;;;;;;;;5056595;28;20071;-60
2023/05/21 08:50:13;;;;;;;9.15;8.30;;;;;;;;;;5056646;28;20032;-60
2023/05/21 08:52:39;;;;;;;11.60;8.20;;;;;;;;;;5056851;28;20029;-60
2023/05/21 08:55:06;;;;;;;8.88;8.00;;;;;;;;;;5056902;28;20047;-60
2023/05/21 08:57:32;;;;;;;10.98;9.75;;;;;;;;;;5057284;28;20018;-59
2023/05/21 08:59:58;;;;;;;10.23;9.18;;;;;;;;;;5056623;28;20021;-60
2023/05/21 09:02:24;;;;;;;10.65;9.55;;;;;;;;;;5056260;28;20029;-60
2023/05/21 09:04:55;;;;;;;10.20;8.43;;;;;;;;;;5056841;28;20075;-59
2023/05/21 09:07:21;;;;;;;10.32;9.23;;;;;;;;;;5056620;28;20021;-59
2023/05/21 09:09:52;;;;;;;9.65;8.63;;;;;;;;;;5056220;28;20029;-59
2023/05/21 09:12:18;;;;;;;9.57;8.68;;;;;;;;;;5056950;28;20103;-60
2023/05/21 09:14:45;;;;;;;9.90;8.98;;;;;;;;;;5056169;28;20053;-60
2023/05/21 09:17:13;;;;;;;10.60;9.05;;;;;;;;;;5055988;28;20367;-59
2023/05/21 09:19:59;;;;;;;10.82;9.75;;;;;;;;;;5055832;28;20530;-59
2023/05/21 09:22:25;;;;;;;10.48;8.52;;;;;;;;;;5056149;28;20025;-60
2023/05/21 09:24:51;;;;;;;10.70;9.60;;;;;;;;;;5056508;28;20111;-60
2023/05/21 09:27:18;;;;;;;11.65;9.48;;;;;;;;;;5056473;28;20397;-60
2023/05/21 09:29:44;;;;;;;9.93;8.93;;;;;;;;;;5055865;28;20032;-60
2023/05/21 09:32:11;;;;;;;11.00;9.80;;;;;;;;;;5055214;28;20029;-59
2023/05/21 09:34:37;;;;;;;9.05;8.07;;;;;;;;;;5055985;28;20025;-60
2023/05/21 09:37:03;;;;;;;9.13;8.25;;;;;;;;;;5056353;28;20024;-60
2023/05/21 09:39:29;;;;;;;9.20;8.27;;;;;;;;;;5056197;28;20017;-58
2023/05/21 09:41:58;;;;;;;10.15;9.15;;;;;;;;;;5055491;28;20056;-58
2023/05/21 09:44:24;;;;;;;10.43;8.52;;;;;;;;;;5055469;28;20474;-57
2023/05/21 09:46:51;;;;;;;9.93;8.65;;;;;;;;;;5056238;28;20067;-58
2023/05/21 09:49:24;;;;;;;21.17;10.75;;;;;;;;;;5055653;28;20055;-60
2023/05/21 09:51:54;;;;;;;9.43;8.43;;;;;;;;;;5055873;28;20477;-60
2023/05/21 09:54:21;;;;;;;8.65;7.82;;;;;;;;;;5055322;28;20021;-60
2023/05/21 09:56:47;;;;;;;10.45;7.78;;;;;;;;;;5055250;28;20029;-58
2023/05/21 09:59:12;;;;;;;9.43;8.38;;;;;;;;;;5054936;28;20150;-58
2023/05/21 10:01:39;;;;;;;15.05;8.45;;;;;;;;;;5055714;28;20044;-58
2023/05/21 10:04:09;;;;;;;9.07;7.25;;;;;;;;;;5055135;28;20036;-58
2023/05/21 10:06:42;;;;;;;12.43;7.30;;;;;;;;;;5055195;28;20470;-58
2023/05/21 10:09:09;;;;;;;9.48;7.43;;;;;;;;;;5055122;28;20079;-58
2023/05/21 10:11:35;;;;;;;11.57;7.57;;;;;;;;;;5054756;28;20467;-58
2023/05/21 10:14:06;;;;;;;8.80;7.47;;;;;;;;;;5054853;28;20147;-58
2023/05/21 10:16:32;;;;;;;;;;;;;;;;;;5055214;28;20025;-57
2023/05/21 10:18:58;;;;;;;7.40;6.70;;;;;;;;;;5054925;28;19911;-58
2023/05/21 10:21:25;;;;;;;8.75;7.85;;;;;;;;;;5055114;28;20033;-58
2023/05/21 10:23:52;;;;;;;7.93;7.13;;;;;;;;;;5054828;28;20033;-58
2023/05/21 10:26:20;;;;;;;8.82;7.93;;;;;;;;;;5055360;28;20036;-57
2023/05/21 10:28:46;;;;;;;7.93;6.85;;;;;;;;;;5054672;28;20078;-59
2023/05/21 10:31:12;;;;;;;8.57;7.70;;;;;;;;;;5055274;28;20062;-59
2023/05/21 10:33:38;;;;;;;8.30;6.88;;;;;;;;;;5054650;28;20047;-59
2023/05/21 10:36:04;;;;;;;8.90;7.97;;;;;;;;;;5055046;28;20017;-59
2023/05/21 10:38:31;;;;;;;8.10;7.30;;;;;;;;;;5054504;28;20029;-59
2023/05/21 10:40:57;;;;;;;8.55;7.40;;;;;;;;;;5054232;28;20078;-59
2023/05/21 10:43:41;;;;;;;9.85;7.78;;;;;;;;;;5054277;28;20051;-58
2023/05/21 10:46:10;;;;;;;7.85;6.55;;;;;;;;;;5054913;28;20029;-58
2023/05/21 10:48:54;;;;;;;8.32;7.30;;;;;;;;;;5053977;28;20025;-58
2023/05/21 10:51:26;;;;;;;7.20;6.40;;;;;;;;;;5054037;28;20025;-58
2023/05/21 10:54:10;;;;;;;7.22;6.28;;;;;;;;;;5054330;28;20029;-59
2023/05/21 10:57:02;;;;;;;7.95;6.90;;;;;;;;;;5054485;28;20039;-59
2023/05/21 10:59:35;;;;;;;8.77;7.18;;;;;;;;;;5045970;28;20056;-59
2023/05/21 11:02:03;;;;;;;8.63;7.38;;;;;;;;;;5054741;28;20116;-59
2023/05/21 11:04:29;;;;;;;8.18;7.38;;;;;;;;;;5053836;28;20056;-59
2023/05/21 11:06:55;;;;;;;8.13;7.32;;;;;;;;;;5054951;28;20028;-60
2023/05/21 11:09:21;;;;;;;9.02;7.60;;;;;;;;;;5054043;28;20021;-60
2023/05/21 11:11:56;;;;;;;7.80;7.00;;;;;;;;;;5054031;28;20032;-60
2023/05/21 11:14:31;;;;;;;7.95;7.15;;;;;;;;;;5053639;28;20045;-59
2023/05/21 11:17:00;;;;;;;9.30;7.60;;;;;;;;;;5054974;28;20068;-59
2023/05/21 11:19:34;;;;;;;9.57;6.95;;;;;;;;;;5053866;28;20112;-59
2023/05/21 11:22:00;;;;;;;7.40;6.65;;;;;;;;;;5054520;28;20045;-59
2023/05/21 11:24:27;;;;;;;7.75;6.43;;;;;;;;;;5054159;28;20021;-59
2023/05/21 11:26:57;;;;;;;7.05;6.07;;;;;;;;;;5054356;28;20040;-59
2023/05/21 11:29:32;;;;;;;7.10;6.40;;;;;;;;;;5053732;28;20079;-59
2023/05/21 11:32:01;;;;;;;8.55;7.30;;;;;;;;;;5054105;28;20021;-59
2023/05/21 11:34:36;;;;;;;7.93;6.43;;;;;;;;;;5053701;28;20032;-59
2023/05/21 11:37:19;;;;;;;7.53;6.43;;;;;;;;;;5054318;28;20104;-59
2023/05/21 11:39:45;;;;;;;7.40;6.70;;;;;;;;;;5053553;28;20029;-59
2023/05/21 11:42:12;;;;;;;7.20;6.50;;;;;;;;;;5053546;28;20075;-59
2023/05/21 11:44:41;;;;;;;8.68;6.40;;;;;;;;;;5054229;28;20032;-59
2023/05/21 11:47:08;;;;;;;7.47;6.55;;;;;;;;;;5054019;28;20021;-59
2023/05/21 11:49:35;;;;;;;10.02;7.50;;;;;;;;;;5053523;28;20463;-59
2023/05/21 11:52:01;;;;;;;7.40;6.47;;;;;;;;;;5053613;28;20025;-59
2023/05/21 11:54:32;;;;;;;9.05;6.90;;;;;;;;;;5053498;28;20035;-59
2023/05/21 11:57:00;;;;;;;8.65;7.28;;;;;;;;;;5057618;28;20422;-59
2023/05/21 11:59:26;;;;;;;8.35;7.53;;;;;;;;;;5057545;28;20108;-59
2023/05/21 12:01:52;;;;;;;7.93;6.80;;;;;;;;;;5058080;28;20399;-59
2023/05/21 12:04:18;;;;;;;6.53;5.82;;;;;;;;;;5058084;28;20067;-58
2023/05/21 12:06:44;;;;;;;6.40;5.72;;;;;;;;;;5057697;28;20017;-59
2023/05/21 12:09:10;;;;;;;7.85;6.43;;;;;;;;;;5057394;28;20021;-59
2023/05/21 12:11:40;;;;;;;7.30;6.38;;;;;;;;;;5057365;28;20101;-59
2023/05/21 12:14:10;;;;;;;8.57;6.57;;;;;;;;;;5057017;28;20494;-59
2023/05/21 12:16:36;;;;;;;6.65;6.03;;;;;;;;;;5057205;28;20248;-59
2023/05/21 12:19:02;;;;;;;7.15;6.45;;;;;;;;;;5057167;28;20032;-59
2023/05/21 12:21:29;;;;;;;6.78;6.07;;;;;;;;;;5057589;28;20360;-59
2023/05/21 12:23:55;;;;;;;6.78;6.10;;;;;;;;;;5057074;28;20021;-59
2023/05/21 12:26:24;;;;;;;6.20;5.60;;;;;;;;;;5057798;28;20032;-59
2023/05/21 12:28:50;;;;;;;6.85;6.13;;;;;;;;;;5056975;28;20074;-59
2023/05/21 12:31:16;;;;;;;7.18;5.15;;;;;;;;;;5057058;28;20029;-59
2023/05/21 12:33:46;;;;;;;5.75;5.15;;;;;;;;;;5057433;28;20136;-59
2023/05/21 12:36:21;;;;;;;6.90;6.13;;;;;;;;;;5056901;28;20040;-59
2023/05/21 12:38:47;;;;;;;7.00;5.40;;;;;;;;;;5057305;28;20017;-59
2023/05/21 12:41:13;;;;;;;6.03;4.68;;;;;;;;;;5056995;28;20047;-59
2023/05/21 12:43:39;;;;;;;8.05;5.50;;;;;;;;;;5056708;28;20025;-59
2023/05/21 12:46:05;;;;;;;6.18;5.03;;;;;;;;;;5057110;28;20025;-59
2023/05/21 12:48:31;;;;;;;8.25;6.05;;;;;;;;;;5056613;28;20049;-59
2023/05/21 12:51:00;;;;;;;6.07;4.75;;;;;;;;;;5056580;28;20060;-59
2023/05/21 12:53:35;;;;;;;6.13;5.18;;;;;;;;;;5056517;28;20025;-59
2023/05/21 12:56:11;;;;;;;4.80;3.92;;;;;;;;;;5056811;28;20036;-59
2023/05/21 12:58:37;;;;;;;6.50;5.47;;;;;;;;;;5056424;28;20030;-59
2023/05/21 13:01:10;;;;;;;5.18;4.68;;;;;;;;;;5056189;28;20124;-59
2023/05/21 13:03:37;;;;;;;4.20;3.80;;;;;;;;;;5056156;28;20028;-59
2023/05/21 13:06:05;;;;;;;5.05;4.55;;;;;;;;;;5056345;28;20029;-59
2023/05/21 13:08:33;;;;;;;5.97;5.05;;;;;;;;;;5055394;28;20025;-59
2023/05/21 13:10:59;;;;;;;6.25;4.72;;;;;;;;;;5056675;28;20056;-59
2023/05/21 13:13:25;;;;;;;7.43;5.72;;;;;;;;;;5056216;28;20470;-59
2023/05/21 13:15:52;;;;;;;5.40;4.63;;;;;;;;;;5056792;28;20136;-60
2023/05/21 13:18:19;;;;;;;6.25;4.57;;;;;;;;;;5056171;28;20025;-58
2023/05/21 13:20:46;;;;;;;5.32;4.70;;;;;;;;;;5055990;28;20033;-59
2023/05/21 13:23:12;;;;;;;5.68;4.82;;;;;;;;;;5056055;28;20079;-60
2023/05/21 13:25:37;;;;;;;4.45;4.03;;;;;;;;;;5055966;28;20024;-59
2023/05/21 13:28:04;;;;;;;7.55;6.75;;;;;;;;;;5056183;28;20060;-60
2023/05/21 13:30:32;;;;;;;7.35;5.53;;;;;;;;;;5055891;28;20029;-60
2023/05/21 13:32:58;;;;;;;5.30;4.80;;;;;;;;;;5055892;28;20067;-59
2023/05/21 13:35:24;;;;;;;5.47;4.95;;;;;;;;;;5055754;28;20024;-59
2023/05/21 13:37:50;;;;;;;5.35;4.35;;;;;;;;;;5055866;28;20021;-60
2023/05/21 13:40:16;;;;;;;6.05;4.88;;;;;;;;;;5055803;28;20029;-60
2023/05/21 13:42:43;;;;;;;6.72;4.53;;;;;;;;;;5056194;28;20017;-60
2023/05/21 13:45:11;;;;;;;5.32;4.70;;;;;;;;;;5056368;28;20036;-59
2023/05/21 13:47:37;;;;;;;6.72;5.25;;;;;;;;;;5055616;28;20031;-59
2023/05/21 13:50:03;;;;;;;6.28;5.25;;;;;;;;;;5055815;28;20029;-60
2023/05/21 13:52:29;;;;;;;5.75;4.53;;;;;;;;;;5055752;28;20029;-60
2023/05/21 13:54:58;;;;;;;5.35;4.32;;;;;;;;;;5055688;28;20048;-60
2023/05/21 13:57:29;;;;;;;5.65;4.47;;;;;;;;;;5055345;28;20021;-60
2023/05/21 13:59:55;;;;;;;5.30;4.18;;;;;;;;;;5055760;28;20461;-60
2023/05/21 14:02:21;;;;;;;5.85;4.90;;;;;;;;;;5055477;28;20033;-60
2023/05/21 14:04:48;;;;;;;5.45;4.57;;;;;;;;;;5054999;28;20079;-60
2023/05/21 14:07:14;;;;;;;5.70;4.18;;;;;;;;;;5054891;28;20032;-60
2023/05/21 14:09:41;;;;;;;5.10;4.18;;;;;;;;;;5055356;28;20097;-60
2023/05/21 14:12:07;;;;;;;6.53;4.10;;;;;;;;;;5054724;28;20028;-60
2023/05/21 14:14:33;;;;;;;6.70;3.90;;;;;;;;;;5054703;28;20053;-60
2023/05/21 14:16:59;;;;;;;5.97;4.57;;;;;;;;;;5054713;28;20113;-60
2023/05/21 14:19:25;;;;;;;4.38;3.88;;;;;;;;;;5054555;28;20021;-60
2023/05/21 14:21:51;;;;;;;4.63;4.03;;;;;;;;;;5054758;28;20082;-60
2023/05/21 14:24:17;;;;;;;4.55;3.75;;;;;;;;;;5055067;28;20021;-60
2023/05/21 14:26:45;;;;;;;5.53;4.63;;;;;;;;;;5054763;28;20120;-60
2023/05/21 14:29:11;;;;;;;4.10;3.65;;;;;;;;;;5054707;28;20467;-60
2023/05/21 14:31:37;;;;;;;4.28;3.78;;;;;;;;;;5054416;28;20028;-59